This is the latest recevied weather packets stored in our database for station/object N1JOV-7. If no packets are shown the sender has not sent any weather packets the latest 10 day(s).
| Time | Temp. | Humidity | Pressure | Rain* | Wind** | Luminosity | Snow |
|---|---|---|---|---|---|---|---|
| 1788559261 | 24.44° C | 67% | 1007.9 hPa | 0 mm | - | - | - |
| 1788558661 | 25° C | 65% | 1007.8 hPa | 0 mm | - | - | - |
| 1788558061 | 26.11° C | 64% | 1007.7 hPa | 0 mm | - | - | - |
| 1788557461 | 26.11° C | 62% | 1007.7 hPa | 0 mm | - | - | - |
| 1788556888 | 25.56° C | 64% | 1007.9 hPa | 0 mm | - | - | - |
| 1788556261 | 26.11° C | 63% | 1007.8 hPa | 0 mm | - | - | - |
| 1788555661 | 26.67° C | 62% | 1007.7 hPa | 0 mm | - | - | - |
| 1788555061 | 25.56° C | 63% | 1007.8 hPa | 0 mm | - | - | - |
| 1788554462 | 26.11° C | 62% | 1007.6 hPa | 0 mm | - | - | - |
| 1788553862 | 25.56° C | 63% | 1007.7 hPa | 0 mm | - | - | - |
| 1788553262 | 25.56° C | 62% | 1007.8 hPa | 0 mm | - | - | - |
| 1788552662 | 26.11° C | 61% | 1007.6 hPa | 0 mm | - | - | - |
| 1788552062 | 26.11° C | 62% | 1007.5 hPa | 0 mm | - | - | - |
| 1788551461 | 26.67° C | 61% | 1007.5 hPa | 0 mm | - | - | - |
| 1788550861 | 26.67° C | 62% | 1007.6 hPa | 0 mm | - | - | - |
| 1788550261 | 26.67° C | 61% | 1007.8 hPa | 0 mm | - | - | - |
| 1788549661 | 27.22° C | 61% | 1007.9 hPa | 0 mm | - | - | - |
| 1788549061 | 26.67° C | 63% | 1008 hPa | 0 mm | - | - | - |
| 1788548461 | 26.11° C | 63% | 1008 hPa | 0 mm | - | - | - |
| 1788547862 | 26.11° C | 64% | 1007.9 hPa | 0 mm | - | - | - |
| 1788547262 | 26.67° C | 65% | 1007.9 hPa | 0 mm | - | - | - |
| 1788546662 | 26.11° C | 66% | 1007.9 hPa | 0 mm | - | - | - |
| 1788546061 | 26.11° C | 65% | 1008.1 hPa | 0 mm | - | - | - |
| 1788545461 | 26.11° C | 65% | 1008.3 hPa | 0 mm | - | - | - |
| 1788544861 | 26.67° C | 63% | 1008 hPa | 0 mm | - | - | - |
* Rain latest hour (hover to see other rain measurements)
** Current wind speed in m/s (hover to see current wind gust speed)